sensor_id;sensor_type;location;lat;lon;timestamp;temperature;humidity
18894;DHT22;9579;49.488;8.226;2022-08-21T06:01:31;20.40;90.80
18894;DHT22;9579;49.488;8.226;2022-08-21T06:04:18;20.60;90.70
18894;DHT22;9579;49.488;8.226;2022-08-21T06:07:06;20.70;90.60
18894;DHT22;9579;49.488;8.226;2022-08-21T06:09:54;20.90;90.60
18894;DHT22;9579;49.488;8.226;2022-08-21T06:12:41;21.10;90.30
18894;DHT22;9579;49.488;8.226;2022-08-21T06:15:28;21.30;90.40
18894;DHT22;9579;49.488;8.226;2022-08-21T06:18:17;21.50;90.00
18894;DHT22;9579;49.488;8.226;2022-08-21T06:21:05;21.60;89.20
18894;DHT22;9579;49.488;8.226;2022-08-21T06:23:52;21.80;89.00
18894;DHT22;9579;49.488;8.226;2022-08-21T06:26:39;21.90;86.90
18894;DHT22;9579;49.488;8.226;2022-08-21T06:29:26;22.10;87.30
18894;DHT22;9579;49.488;8.226;2022-08-21T06:32:13;22.10;86.40
18894;DHT22;9579;49.488;8.226;2022-08-21T06:35:02;22.30;86.20
18894;DHT22;9579;49.488;8.226;2022-08-21T06:37:49;22.50;86.00
18894;DHT22;9579;49.488;8.226;2022-08-21T06:40:37;22.60;85.70
18894;DHT22;9579;49.488;8.226;2022-08-21T06:43:24;22.70;84.90
18894;DHT22;9579;49.488;8.226;2022-08-21T06:46:11;22.90;85.00
18894;DHT22;9579;49.488;8.226;2022-08-21T06:48:58;23.00;85.20
18894;DHT22;9579;49.488;8.226;2022-08-21T06:51:46;23.20;84.80
18894;DHT22;9579;49.488;8.226;2022-08-21T06:54:33;23.40;83.90
18894;DHT22;9579;49.488;8.226;2022-08-21T06:57:20;23.50;82.80
18894;DHT22;9579;49.488;8.226;2022-08-21T07:00:08;23.60;81.70
18894;DHT22;9579;49.488;8.226;2022-08-21T07:02:56;23.60;82.20
18894;DHT22;9579;49.488;8.226;2022-08-21T07:05:43;23.80;81.90
18894;DHT22;9579;49.488;8.226;2022-08-21T07:08:31;23.80;79.70
18894;DHT22;9579;49.488;8.226;2022-08-21T07:11:20;23.90;79.70
18894;DHT22;9579;49.488;8.226;2022-08-21T07:14:07;23.90;79.60
18894;DHT22;9579;49.488;8.226;2022-08-21T07:16:54;23.90;79.40
18894;DHT22;9579;49.488;8.226;2022-08-21T07:19:42;24.00;80.20
18894;DHT22;9579;49.488;8.226;2022-08-21T07:22:29;24.20;80.60
18894;DHT22;9579;49.488;8.226;2022-08-21T07:25:17;24.30;78.10
18894;DHT22;9579;49.488;8.226;2022-08-21T07:28:11;24.50;77.80
18894;DHT22;9579;49.488;8.226;2022-08-21T07:31:00;24.60;76.80
18894;DHT22;9579;49.488;8.226;2022-08-21T07:33:52;24.80;76.70
18894;DHT22;9579;49.488;8.226;2022-08-21T07:36:39;25.00;76.00
18894;DHT22;9579;49.488;8.226;2022-08-21T07:39:27;25.00;75.40
18894;DHT22;9579;49.488;8.226;2022-08-21T07:42:16;25.10;75.40
18894;DHT22;9579;49.488;8.226;2022-08-21T07:45:03;25.30;73.90
18894;DHT22;9579;49.488;8.226;2022-08-21T07:47:51;25.40;74.90
18894;DHT22;9579;49.488;8.226;2022-08-21T07:50:38;25.70;73.90
18894;DHT22;9579;49.488;8.226;2022-08-21T07:53:26;25.90;72.30
18894;DHT22;9579;49.488;8.226;2022-08-21T07:56:13;26.20;71.20
18894;DHT22;9579;49.488;8.226;2022-08-21T07:59:01;26.30;71.40
18894;DHT22;9579;49.488;8.226;2022-08-21T08:01:49;26.60;70.10
18894;DHT22;9579;49.488;8.226;2022-08-21T08:04:36;26.80;69.70
18894;DHT22;9579;49.488;8.226;2022-08-21T08:07:23;26.90;68.10
18894;DHT22;9579;49.488;8.226;2022-08-21T08:10:10;27.10;69.10
18894;DHT22;9579;49.488;8.226;2022-08-21T08:12:57;27.30;67.40
18894;DHT22;9579;49.488;8.226;2022-08-21T08:15:45;27.40;66.70
18894;DHT22;9579;49.488;8.226;2022-08-21T08:18:33;27.60;66.80
18894;DHT22;9579;49.488;8.226;2022-08-21T08:21:21;27.80;66.30
18894;DHT22;9579;49.488;8.226;2022-08-21T08:24:08;28.00;66.30
18894;DHT22;9579;49.488;8.226;2022-08-21T08:26:55;28.20;66.70
18894;DHT22;9579;49.488;8.226;2022-08-21T08:29:43;28.30;64.60
18894;DHT22;9579;49.488;8.226;2022-08-21T08:32:32;28.50;64.00
18894;DHT22;9579;49.488;8.226;2022-08-21T08:35:19;28.60;63.20
18894;DHT22;9579;49.488;8.226;2022-08-21T08:38:06;28.60;63.50
18894;DHT22;9579;49.488;8.226;2022-08-21T08:41:03;28.70;62.90
18894;DHT22;9579;49.488;8.226;2022-08-21T08:43:54;28.70;63.60
18894;DHT22;9579;49.488;8.226;2022-08-21T08:46:44;28.80;63.40
18894;DHT22;9579;49.488;8.226;2022-08-21T08:49:37;29.10;62.70
18894;DHT22;9579;49.488;8.226;2022-08-21T08:52:28;28.90;62.10
18894;DHT22;9579;49.488;8.226;2022-08-21T08:55:19;29.10;63.60
18894;DHT22;9579;49.488;8.226;2022-08-21T08:58:09;29.40;61.80
18894;DHT22;9579;49.488;8.226;2022-08-21T09:00:59;29.50;60.60
18894;DHT22;9579;49.488;8.226;2022-08-21T09:03:47;29.40;60.80
18894;DHT22;9579;49.488;8.226;2022-08-21T09:06:46;29.50;61.20
18894;DHT22;9579;49.488;8.226;2022-08-21T09:09:53;29.80;60.40
18894;DHT22;9579;49.488;8.226;2022-08-21T09:12:56;29.80;59.60
18894;DHT22;9579;49.488;8.226;2022-08-21T09:15:53;30.10;60.00
18894;DHT22;9579;49.488;8.226;2022-08-21T09:18:47;30.20;59.90
18894;DHT22;9579;49.488;8.226;2022-08-21T09:21:43;30.30;58.90
18894;DHT22;9579;49.488;8.226;2022-08-21T09:24:40;30.30;58.80
18894;DHT22;9579;49.488;8.226;2022-08-21T09:27:30;30.30;58.30
18894;DHT22;9579;49.488;8.226;2022-08-21T09:30:23;30.50;58.70
18894;DHT22;9579;49.488;8.226;2022-08-21T09:33:13;30.60;57.80
18894;DHT22;9579;49.488;8.226;2022-08-21T09:36:02;30.80;57.00
18894;DHT22;9579;49.488;8.226;2022-08-21T09:38:54;30.80;56.40
18894;DHT22;9579;49.488;8.226;2022-08-21T09:41:42;30.80;55.60
18894;DHT22;9579;49.488;8.226;2022-08-21T09:44:30;30.70;55.50
18894;DHT22;9579;49.488;8.226;2022-08-21T09:47:18;31.00;55.40
18894;DHT22;9579;49.488;8.226;2022-08-21T09:50:15;31.10;55.40
18894;DHT22;9579;49.488;8.226;2022-08-21T09:53:03;31.50;55.00
18894;DHT22;9579;49.488;8.226;2022-08-21T09:55:54;31.80;55.10
18894;DHT22;9579;49.488;8.226;2022-08-21T09:59:14;31.90;53.60
18894;DHT22;9579;49.488;8.226;2022-08-21T10:02:16;32.00;54.20
18894;DHT22;9579;49.488;8.226;2022-08-21T10:05:14;32.20;54.60
18894;DHT22;9579;49.488;8.226;2022-08-21T10:08:02;32.40;53.40
18894;DHT22;9579;49.488;8.226;2022-08-21T10:10:54;32.40;53.70
18894;DHT22;9579;49.488;8.226;2022-08-21T10:13:50;32.30;53.30
18894;DHT22;9579;49.488;8.226;2022-08-21T10:16:52;32.00;54.30
18894;DHT22;9579;49.488;8.226;2022-08-21T10:19:48;32.10;53.50
18894;DHT22;9579;49.488;8.226;2022-08-21T10:22:46;32.40;54.10
18894;DHT22;9579;49.488;8.226;2022-08-21T10:25:42;32.70;52.40
18894;DHT22;9579;49.488;8.226;2022-08-21T10:28:35;32.60;52.80
18894;DHT22;9579;49.488;8.226;2022-08-21T10:31:30;32.20;53.70
18894;DHT22;9579;49.488;8.226;2022-08-21T10:34:30;32.10;54.50
18894;DHT22;9579;49.488;8.226;2022-08-21T10:37:25;32.20;54.40
18894;DHT22;9579;49.488;8.226;2022-08-21T10:40:21;32.20;53.30
18894;DHT22;9579;49.488;8.226;2022-08-21T10:43:17;31.90;53.80
18894;DHT22;9579;49.488;8.226;2022-08-21T10:46:18;31.40;54.30
18894;DHT22;9579;49.488;8.226;2022-08-21T10:49:18;31.20;54.20
18894;DHT22;9579;49.488;8.226;2022-08-21T10:55:25;31.20;55.30
18894;DHT22;9579;49.488;8.226;2022-08-21T10:58:17;31.00;55.40
18894;DHT22;9579;49.488;8.226;2022-08-21T11:01:09;31.20;55.20
18894;DHT22;9579;49.488;8.226;2022-08-21T11:04:09;31.60;53.70
18894;DHT22;9579;49.488;8.226;2022-08-21T11:07:01;31.80;54.60
18894;DHT22;9579;49.488;8.226;2022-08-21T11:09:49;32.10;54.60
18894;DHT22;9579;49.488;8.226;2022-08-21T11:12:42;32.20;54.10
18894;DHT22;9579;49.488;8.226;2022-08-21T11:15:35;32.20;53.30
18894;DHT22;9579;49.488;8.226;2022-08-21T11:18:29;32.00;53.70
18894;DHT22;9579;49.488;8.226;2022-08-21T11:21:27;31.90;52.60
18894;DHT22;9579;49.488;8.226;2022-08-21T11:24:24;32.00;54.40
18894;DHT22;9579;49.488;8.226;2022-08-21T11:27:21;32.10;52.90
18894;DHT22;9579;49.488;8.226;2022-08-21T11:30:10;32.20;53.20
18894;DHT22;9579;49.488;8.226;2022-08-21T11:33:07;32.30;52.40
18894;DHT22;9579;49.488;8.226;2022-08-21T11:36:07;32.60;53.30
18894;DHT22;9579;49.488;8.226;2022-08-21T11:39:11;33.20;53.30
18894;DHT22;9579;49.488;8.226;2022-08-21T11:42:06;33.70;51.90
18894;DHT22;9579;49.488;8.226;2022-08-21T11:45:03;34.20;51.70
18894;DHT22;9579;49.488;8.226;2022-08-21T11:47:58;34.60;51.20
18894;DHT22;9579;49.488;8.226;2022-08-21T11:50:47;34.60;48.20
18894;DHT22;9579;49.488;8.226;2022-08-21T11:53:48;34.30;48.10
18894;DHT22;9579;49.488;8.226;2022-08-21T11:56:41;34.20;49.00
18894;DHT22;9579;49.488;8.226;2022-08-21T11:59:36;34.70;49.40
18894;DHT22;9579;49.488;8.226;2022-08-21T12:02:28;35.30;50.80
18894;DHT22;9579;49.488;8.226;2022-08-21T12:05:27;35.80;47.10
18894;DHT22;9579;49.488;8.226;2022-08-21T12:08:27;36.20;46.60
18894;DHT22;9579;49.488;8.226;2022-08-21T12:11:25;36.50;47.00
18894;DHT22;9579;49.488;8.226;2022-08-21T12:14:14;36.80;45.50
18894;DHT22;9579;49.488;8.226;2022-08-21T12:17:04;36.80;45.20
18894;DHT22;9579;49.488;8.226;2022-08-21T12:19:59;36.50;44.40
18894;DHT22;9579;49.488;8.226;2022-08-21T12:22:54;36.40;45.80
18894;DHT22;9579;49.488;8.226;2022-08-21T12:25:43;36.50;45.40
18894;DHT22;9579;49.488;8.226;2022-08-21T12:28:32;36.50;45.00
18894;DHT22;9579;49.488;8.226;2022-08-21T12:31:23;36.50;44.70
18894;DHT22;9579;49.488;8.226;2022-08-21T12:34:10;36.40;44.90
18894;DHT22;9579;49.488;8.226;2022-08-21T12:37:02;36.40;44.10
18894;DHT22;9579;49.488;8.226;2022-08-21T12:39:52;36.30;44.70
18894;DHT22;9579;49.488;8.226;2022-08-21T12:42:43;36.30;45.00
18894;DHT22;9579;49.488;8.226;2022-08-21T12:45:36;36.70;45.50
18894;DHT22;9579;49.488;8.226;2022-08-21T12:48:28;37.00;44.20
18894;DHT22;9579;49.488;8.226;2022-08-21T12:51:18;37.20;44.50
18894;DHT22;9579;49.488;8.226;2022-08-21T12:54:09;37.10;43.90
18894;DHT22;9579;49.488;8.226;2022-08-21T12:56:58;36.70;44.40
18894;DHT22;9579;49.488;8.226;2022-08-21T12:59:46;37.10;43.90
18894;DHT22;9579;49.488;8.226;2022-08-21T13:02:43;37.50;43.70
18894;DHT22;9579;49.488;8.226;2022-08-21T13:05:35;37.50;43.50
18894;DHT22;9579;49.488;8.226;2022-08-21T13:08:25;37.90;43.30
18894;DHT22;9579;49.488;8.226;2022-08-21T13:11:15;38.00;42.20
18894;DHT22;9579;49.488;8.226;2022-08-21T13:14:03;37.90;42.80
18894;DHT22;9579;49.488;8.226;2022-08-21T13:16:53;37.90;42.20
18894;DHT22;9579;49.488;8.226;2022-08-21T13:19:53;38.10;42.60
18894;DHT22;9579;49.488;8.226;2022-08-21T13:22:41;37.90;41.60
18894;DHT22;9579;49.488;8.226;2022-08-21T13:25:34;37.50;41.70
18894;DHT22;9579;49.488;8.226;2022-08-21T13:28:23;36.90;41.40
18894;DHT22;9579;49.488;8.226;2022-08-21T13:31:10;36.50;41.80
18894;DHT22;9579;49.488;8.226;2022-08-21T13:33:58;36.90;42.50
18894;DHT22;9579;49.488;8.226;2022-08-21T13:36:47;37.40;42.30
18894;DHT22;9579;49.488;8.226;2022-08-21T13:39:38;37.70;42.20
18894;DHT22;9579;49.488;8.226;2022-08-21T13:42:25;37.90;41.50
18894;DHT22;9579;49.488;8.226;2022-08-21T13:45:15;38.20;42.80
18894;DHT22;9579;49.488;8.226;2022-08-21T13:48:03;38.70;41.50
18894;DHT22;9579;49.488;8.226;2022-08-21T13:50:51;39.10;39.60
18894;DHT22;9579;49.488;8.226;2022-08-21T13:53:47;39.10;39.90
18894;DHT22;9579;49.488;8.226;2022-08-21T13:56:42;38.40;39.80
18894;DHT22;9579;49.488;8.226;2022-08-21T13:59:32;38.40;41.30
18894;DHT22;9579;49.488;8.226;2022-08-21T14:02:21;38.60;42.30
18894;DHT22;9579;49.488;8.226;2022-08-21T14:05:15;39.00;41.70
18894;DHT22;9579;49.488;8.226;2022-08-21T14:08:06;39.10;40.40
18894;DHT22;9579;49.488;8.226;2022-08-21T14:10:54;38.40;41.10
18894;DHT22;9579;49.488;8.226;2022-08-21T14:13:43;38.60;42.10
18894;DHT22;9579;49.488;8.226;2022-08-21T14:16:42;39.00;42.70
18894;DHT22;9579;49.488;8.226;2022-08-21T14:19:37;39.30;40.80
18894;DHT22;9579;49.488;8.226;2022-08-21T14:22:37;39.50;41.90
18894;DHT22;9579;49.488;8.226;2022-08-21T14:25:30;39.90;41.10
18894;DHT22;9579;49.488;8.226;2022-08-21T14:28:24;39.80;39.60
18894;DHT22;9579;49.488;8.226;2022-08-21T14:31:14;39.00;39.60
18894;DHT22;9579;49.488;8.226;2022-08-21T14:34:02;38.90;41.70
18894;DHT22;9579;49.488;8.226;2022-08-21T14:36:49;39.20;39.90
18894;DHT22;9579;49.488;8.226;2022-08-21T14:39:37;38.90;40.00
18894;DHT22;9579;49.488;8.226;2022-08-21T14:42:24;38.70;38.70
18894;DHT22;9579;49.488;8.226;2022-08-21T14:45:14;38.10;39.30
18894;DHT22;9579;49.488;8.226;2022-08-21T14:48:02;37.50;41.00
18894;DHT22;9579;49.488;8.226;2022-08-21T14:50:50;37.60;40.20
18894;DHT22;9579;49.488;8.226;2022-08-21T14:53:37;38.00;41.30
18894;DHT22;9579;49.488;8.226;2022-08-21T14:56:24;38.30;41.10
18894;DHT22;9579;49.488;8.226;2022-08-21T14:59:11;38.70;40.90
18894;DHT22;9579;49.488;8.226;2022-08-21T15:02:00;38.40;40.10
18894;DHT22;9579;49.488;8.226;2022-08-21T15:04:49;37.90;40.60
18894;DHT22;9579;49.488;8.226;2022-08-21T15:07:36;37.80;40.90
18894;DHT22;9579;49.488;8.226;2022-08-21T15:10:23;38.10;41.70
18894;DHT22;9579;49.488;8.226;2022-08-21T15:13:11;38.30;40.70
18894;DHT22;9579;49.488;8.226;2022-08-21T15:15:59;38.50;40.20
18894;DHT22;9579;49.488;8.226;2022-08-21T15:18:47;38.10;41.40
18894;DHT22;9579;49.488;8.226;2022-08-21T15:21:34;37.60;40.50
18894;DHT22;9579;49.488;8.226;2022-08-21T15:24:22;37.40;40.80
18894;DHT22;9579;49.488;8.226;2022-08-21T15:27:09;37.20;41.00
18894;DHT22;9579;49.488;8.226;2022-08-21T15:29:57;36.20;43.00
18894;DHT22;9579;49.488;8.226;2022-08-21T15:32:44;35.70;43.40
18894;DHT22;9579;49.488;8.226;2022-08-21T15:35:33;35.30;43.10
18894;DHT22;9579;49.488;8.226;2022-08-21T15:38:20;35.00;43.30
18894;DHT22;9579;49.488;8.226;2022-08-21T15:41:07;34.80;43.60
18894;DHT22;9579;49.488;8.226;2022-08-21T15:43:54;34.60;43.70
18894;DHT22;9579;49.488;8.226;2022-08-21T15:46:42;34.50;43.90
18894;DHT22;9579;49.488;8.226;2022-08-21T15:49:30;34.30;43.40
18894;DHT22;9579;49.488;8.226;2022-08-21T15:52:20;34.10;43.90
18894;DHT22;9579;49.488;8.226;2022-08-21T15:55:09;34.00;43.90
18894;DHT22;9579;49.488;8.226;2022-08-21T15:57:56;33.70;44.50
18894;DHT22;9579;49.488;8.226;2022-08-21T16:00:44;33.30;45.70
18894;DHT22;9579;49.488;8.226;2022-08-21T16:03:33;33.10;45.70
18894;DHT22;9579;49.488;8.226;2022-08-21T16:06:20;32.90;45.90
18894;DHT22;9579;49.488;8.226;2022-08-21T16:09:08;32.80;46.00
18894;DHT22;9579;49.488;8.226;2022-08-21T16:11:55;32.70;46.80
18894;DHT22;9579;49.488;8.226;2022-08-21T16:14:43;32.60;46.70
18894;DHT22;9579;49.488;8.226;2022-08-21T16:17:32;32.60;46.50
18894;DHT22;9579;49.488;8.226;2022-08-21T16:20:22;32.50;47.10
18894;DHT22;9579;49.488;8.226;2022-08-21T16:23:10;32.40;46.50
18894;DHT22;9579;49.488;8.226;2022-08-21T16:25:58;32.20;46.80
18894;DHT22;9579;49.488;8.226;2022-08-21T16:28:47;32.00;46.00
18894;DHT22;9579;49.488;8.226;2022-08-21T16:31:35;31.70;46.40
18894;DHT22;9579;49.488;8.226;2022-08-21T16:34:22;31.50;46.90
18894;DHT22;9579;49.488;8.226;2022-08-21T16:37:10;31.20;47.20
18894;DHT22;9579;49.488;8.226;2022-08-21T16:39:57;30.90;47.70
18894;DHT22;9579;49.488;8.226;2022-08-21T16:42:45;30.80;48.40
18894;DHT22;9579;49.488;8.226;2022-08-21T16:45:34;30.80;49.30
18894;DHT22;9579;49.488;8.226;2022-08-21T16:48:21;30.80;50.70
18894;DHT22;9579;49.488;8.226;2022-08-21T16:51:08;30.80;50.90
18894;DHT22;9579;49.488;8.226;2022-08-21T16:53:55;30.80;50.80
18894;DHT22;9579;49.488;8.226;2022-08-21T16:56:42;30.70;49.90
18894;DHT22;9579;49.488;8.226;2022-08-21T16:59:31;30.70;50.00
18894;DHT22;9579;49.488;8.226;2022-08-21T17:02:25;30.70;51.00
18894;DHT22;9579;49.488;8.226;2022-08-21T17:05:14;30.70;50.30
18894;DHT22;9579;49.488;8.226;2022-08-21T17:08:02;30.60;49.50
18894;DHT22;9579;49.488;8.226;2022-08-21T17:10:50;30.60;50.50
18894;DHT22;9579;49.488;8.226;2022-08-21T17:13:37;30.50;49.70
18894;DHT22;9579;49.488;8.226;2022-08-21T17:16:26;30.50;51.20
18894;DHT22;9579;49.488;8.226;2022-08-21T17:19:14;30.50;52.30
18894;DHT22;9579;49.488;8.226;2022-08-21T17:22:02;30.50;52.40
18894;DHT22;9579;49.488;8.226;2022-08-21T17:24:49;30.30;51.80
18894;DHT22;9579;49.488;8.226;2022-08-21T17:27:38;30.30;51.60
18894;DHT22;9579;49.488;8.226;2022-08-21T17:30:25;30.30;51.30
18894;DHT22;9579;49.488;8.226;2022-08-21T17:33:16;30.20;52.50
18894;DHT22;9579;49.488;8.226;2022-08-21T17:36:05;30.10;53.50
18894;DHT22;9579;49.488;8.226;2022-08-21T17:38:53;29.90;53.50
18894;DHT22;9579;49.488;8.226;2022-08-21T17:41:40;29.70;53.80
18894;DHT22;9579;49.488;8.226;2022-08-21T17:44:27;29.60;54.10
18894;DHT22;9579;49.488;8.226;2022-08-21T17:47:14;29.50;54.90
18894;DHT22;9579;49.488;8.226;2022-08-21T17:50:03;29.40;55.30
18894;DHT22;9579;49.488;8.226;2022-08-21T17:52:51;29.30;55.60
18894;DHT22;9579;49.488;8.226;2022-08-21T17:55:38;29.20;56.10
18894;DHT22;9579;49.488;8.226;2022-08-21T17:58:26;29.10;56.40
18894;DHT22;9579;49.488;8.226;2022-08-21T18:01:13;28.90;56.60
18894;DHT22;9579;49.488;8.226;2022-08-21T18:04:00;28.80;57.20
18894;DHT22;9579;49.488;8.226;2022-08-21T18:06:49;28.70;56.80
18894;DHT22;9579;49.488;8.226;2022-08-21T18:09:36;28.60;57.00
18894;DHT22;9579;49.488;8.226;2022-08-21T18:12:23;28.50;57.10
18894;DHT22;9579;49.488;8.226;2022-08-21T18:15:11;28.40;57.30
18894;DHT22;9579;49.488;8.226;2022-08-21T18:17:59;28.20;57.20
18894;DHT22;9579;49.488;8.226;2022-08-21T18:20:46;28.10;57.30
18894;DHT22;9579;49.488;8.226;2022-08-21T18:23:35;28.00;57.50
18894;DHT22;9579;49.488;8.226;2022-08-21T18:26:26;27.90;58.40
18894;DHT22;9579;49.488;8.226;2022-08-21T18:29:16;27.90;58.30
18894;DHT22;9579;49.488;8.226;2022-08-21T18:32:05;27.80;58.30
18894;DHT22;9579;49.488;8.226;2022-08-21T18:34:53;27.70;59.20
18894;DHT22;9579;49.488;8.226;2022-08-21T18:37:41;27.60;59.70
18894;DHT22;9579;49.488;8.226;2022-08-21T18:40:31;27.40;60.00
18894;DHT22;9579;49.488;8.226;2022-08-21T18:43:19;27.30;60.90
18894;DHT22;9579;49.488;8.226;2022-08-21T18:46:07;27.10;61.40
18894;DHT22;9579;49.488;8.226;2022-08-21T18:48:54;27.00;61.60
18894;DHT22;9579;49.488;8.226;2022-08-21T18:51:41;26.80;62.10
18894;DHT22;9579;49.488;8.226;2022-08-21T18:54:28;26.60;62.70
18894;DHT22;9579;49.488;8.226;2022-08-21T18:57:17;26.50;62.60
18894;DHT22;9579;49.488;8.226;2022-08-21T19:00:06;26.40;62.90
18894;DHT22;9579;49.488;8.226;2022-08-21T19:02:56;26.40;63.10
18894;DHT22;9579;49.488;8.226;2022-08-21T19:05:43;26.30;62.90
18894;DHT22;9579;49.488;8.226;2022-08-21T19:08:30;26.20;62.80
18894;DHT22;9579;49.488;8.226;2022-08-21T19:11:17;26.20;62.70
18894;DHT22;9579;49.488;8.226;2022-08-21T19:14:07;26.10;62.40
18894;DHT22;9579;49.488;8.226;2022-08-21T19:16:55;26.10;61.50
18894;DHT22;9579;49.488;8.226;2022-08-21T19:19:42;25.90;61.40
18894;DHT22;9579;49.488;8.226;2022-08-21T19:22:30;25.80;62.00
18894;DHT22;9579;49.488;8.226;2022-08-21T19:25:17;25.70;63.60
18894;DHT22;9579;49.488;8.226;2022-08-21T19:28:08;25.60;64.30
18894;DHT22;9579;49.488;8.226;2022-08-21T19:31:01;25.50;64.90
18894;DHT22;9579;49.488;8.226;2022-08-21T19:33:51;25.40;65.10
18894;DHT22;9579;49.488;8.226;2022-08-21T19:36:40;25.30;65.40
18894;DHT22;9579;49.488;8.226;2022-08-21T19:39:27;25.20;65.40
18894;DHT22;9579;49.488;8.226;2022-08-21T19:42:15;25.10;65.20
18894;DHT22;9579;49.488;8.226;2022-08-21T19:45:07;25.10;65.40
18894;DHT22;9579;49.488;8.226;2022-08-21T19:47:55;25.10;65.30
18894;DHT22;9579;49.488;8.226;2022-08-21T19:50:42;25.10;65.30
18894;DHT22;9579;49.488;8.226;2022-08-21T19:53:29;24.90;65.80
18894;DHT22;9579;49.488;8.226;2022-08-21T19:56:19;25.00;66.00
18894;DHT22;9579;49.488;8.226;2022-08-21T19:59:06;24.90;66.10
18894;DHT22;9579;49.488;8.226;2022-08-21T20:01:53;24.90;66.50
18894;DHT22;9579;49.488;8.226;2022-08-21T20:04:42;24.80;67.10
18894;DHT22;9579;49.488;8.226;2022-08-21T20:07:29;24.70;67.50
18894;DHT22;9579;49.488;8.226;2022-08-21T20:10:16;24.60;67.60
18894;DHT22;9579;49.488;8.226;2022-08-21T20:13:03;24.60;67.60
18894;DHT22;9579;49.488;8.226;2022-08-21T20:15:51;24.60;68.20
18894;DHT22;9579;49.488;8.226;2022-08-21T20:18:38;24.50;68.10
18894;DHT22;9579;49.488;8.226;2022-08-21T20:21:27;24.40;68.10
18894;DHT22;9579;49.488;8.226;2022-08-21T20:24:15;24.40;68.10
18894;DHT22;9579;49.488;8.226;2022-08-21T20:27:03;24.30;67.50
18894;DHT22;9579;49.488;8.226;2022-08-21T20:29:51;24.40;68.10
18894;DHT22;9579;49.488;8.226;2022-08-21T20:32:38;24.30;67.70
18894;DHT22;9579;49.488;8.226;2022-08-21T20:35:25;24.30;67.40
18894;DHT22;9579;49.488;8.226;2022-08-21T20:38:14;24.20;67.80
18894;DHT22;9579;49.488;8.226;2022-08-21T20:41:01;24.20;68.10
18894;DHT22;9579;49.488;8.226;2022-08-21T20:43:50;24.20;68.60
18894;DHT22;9579;49.488;8.226;2022-08-21T20:46:37;24.10;68.40
18894;DHT22;9579;49.488;8.226;2022-08-21T20:49:30;24.00;68.50
18894;DHT22;9579;49.488;8.226;2022-08-21T20:52:19;23.90;69.60
18894;DHT22;9579;49.488;8.226;2022-08-21T20:55:12;24.00;69.30
18894;DHT22;9579;49.488;8.226;2022-08-21T20:58:05;23.90;68.90
18894;DHT22;9579;49.488;8.226;2022-08-21T21:00:54;23.80;69.10
18894;DHT22;9579;49.488;8.226;2022-08-21T21:03:45;23.80;69.10
18894;DHT22;9579;49.488;8.226;2022-08-21T21:06:34;23.70;69.30
18894;DHT22;9579;49.488;8.226;2022-08-21T21:09:29;23.60;70.10
18894;DHT22;9579;49.488;8.226;2022-08-21T21:12:24;23.70;71.70
18894;DHT22;9579;49.488;8.226;2022-08-21T21:15:18;23.70;72.00
18894;DHT22;9579;49.488;8.226;2022-08-21T21:18:11;23.60;71.20
18894;DHT22;9579;49.488;8.226;2022-08-21T21:21:05;23.50;70.60
18894;DHT22;9579;49.488;8.226;2022-08-21T21:23:57;23.50;70.10
18894;DHT22;9579;49.488;8.226;2022-08-21T21:26:51;23.50;69.80
18894;DHT22;9579;49.488;8.226;2022-08-21T21:29:44;23.50;69.20
18894;DHT22;9579;49.488;8.226;2022-08-21T21:32:33;23.50;68.40
18894;DHT22;9579;49.488;8.226;2022-08-21T21:35:24;23.50;68.40
18894;DHT22;9579;49.488;8.226;2022-08-21T21:38:16;23.50;68.90
18894;DHT22;9579;49.488;8.226;2022-08-21T21:41:12;23.40;69.30
18894;DHT22;9579;49.488;8.226;2022-08-21T21:44:10;23.40;69.70
18894;DHT22;9579;49.488;8.226;2022-08-21T21:47:07;23.30;70.00
18894;DHT22;9579;49.488;8.226;2022-08-21T21:50:04;23.20;70.30
18894;DHT22;9579;49.488;8.226;2022-08-21T21:53:18;23.20;70.20
18894;DHT22;9579;49.488;8.226;2022-08-21T21:56:15;23.20;70.00
18894;DHT22;9579;49.488;8.226;2022-08-21T21:59:27;23.00;70.10
18894;DHT22;9579;49.488;8.226;2022-08-21T22:02:30;23.00;70.90
18894;DHT22;9579;49.488;8.226;2022-08-21T22:05:26;23.00;71.00
18894;DHT22;9579;49.488;8.226;2022-08-21T22:08:23;22.90;70.50
18894;DHT22;9579;49.488;8.226;2022-08-21T22:11:16;22.90;70.70
18894;DHT22;9579;49.488;8.226;2022-08-21T22:14:10;22.90;71.70
18894;DHT22;9579;49.488;8.226;2022-08-21T22:17:01;22.80;72.10
18894;DHT22;9579;49.488;8.226;2022-08-21T22:19:51;22.80;73.00
18894;DHT22;9579;49.488;8.226;2022-08-21T22:22:41;22.80;73.20
18894;DHT22;9579;49.488;8.226;2022-08-21T22:25:34;22.80;72.10
18894;DHT22;9579;49.488;8.226;2022-08-21T22:28:24;22.90;71.90
18894;DHT22;9579;49.488;8.226;2022-08-21T22:31:15;22.80;71.30
18894;DHT22;9579;49.488;8.226;2022-08-21T22:34:06;22.80;71.70
18894;DHT22;9579;49.488;8.226;2022-08-21T22:36:59;22.80;71.30
18894;DHT22;9579;49.488;8.226;2022-08-21T22:39:53;22.80;69.40
18894;DHT22;9579;49.488;8.226;2022-08-21T22:42:40;22.90;68.70
18894;DHT22;9579;49.488;8.226;2022-08-21T22:45:28;22.90;68.30
18894;DHT22;9579;49.488;8.226;2022-08-21T22:48:18;22.90;68.60
18894;DHT22;9579;49.488;8.226;2022-08-21T22:51:10;22.90;68.70
18894;DHT22;9579;49.488;8.226;2022-08-21T22:54:00;22.90;68.10
18894;DHT22;9579;49.488;8.226;2022-08-21T22:57:00;22.90;67.50
18894;DHT22;9579;49.488;8.226;2022-08-21T22:59:55;23.00;67.70
